Liberty, Maine
Current Conditions -  °F | °C
As of 7:35 AM on Monday 26 Jan 2015 (Local Time) from KWVL Reporting Station
Clear Clear  
Wind Chill:   Ceiling: Unl
Heat Index:   Visibility: 10mi
Dew Point: -11°   Wind: 0mph
Humidity: 60%   Direction: NA
Pressure: 30.13"   Gusts: NA
Location:  44.39°N, 69.3°W
Report Text: KWVL 261235Z 00000KT 10SM CLR M18/M24 A3013 RMK AO1
Loading
Personal Weather Stations






























Interactive Weather Map New forecast layout! Learn more

10-Day Weather Forecast

Advertisements
Track Severe Weather on mobile